Maran Canopus — SXUQ — position and weather

sailwx.info

Track history (hours):
 
Tides and Currents Weather Stations Pressure Air Temp Water Temp Dewpoint Dewpoint Depression Visibility Wind Speed Wind Dir Waves Ship Positions

Maran Canopus

Last reported at 2014-Sep-02 06:31 UTC. Time now 2014-Sep-17 15:41 UTC.
Position N 01°10' E 103°47'.
Warning: this ship's position is 15 days out of date.

Length 333 m; draft 11.5 m.

Type: Tanker. MMSI: 240677000.

Date/timePositionNaut miles runAvg speedWind from/ knotsBaromVisibWave heightAir tempDewpointWater temp
2014-Sep-02 06:31N 01°10' E 103°47'1010.7
2014-Sep-02 05:33N 01°14' E 103°56'2 1.6
2014-Sep-02 04:33N 01°16' E 103°55'0 0.0
2014-Sep-02 03:33N 01°16' E 103°55'0 0.0
2014-Sep-02 02:24N 01°16' E 103°55'0 0.0
2014-Sep-02 01:24N 01°16' E 103°55'0 0.0
2014-Sep-02 00:33N 01°16' E 103°55'0 0.0
2014-Sep-01 23:24N 01°16' E 103°55'0 0.0
2014-Sep-01 22:33N 01°16' E 103°55'0 0.0
2014-Sep-01 21:33N 01°16' E 103°55'0 0.0
2014-Sep-01 20:30N 01°16' E 103°55'0 0.0
2014-Sep-01 19:33N 01°16' E 103°55'0 0.0
2014-Sep-01 18:33N 01°16' E 103°55'0 0.0
2014-Sep-01 17:33N 01°16' E 103°55'0 0.0
2014-Sep-01 16:33N 01°16' E 103°55'0 0.1
2014-Sep-01 15:33N 01°16' E 103°55'0 0.0
2014-Sep-01 14:33N 01°16' E 103°55'0 0.1
2014-Sep-01 13:21N 01°16' E 103°55'0 0.1
2014-Sep-01 12:33N 01°16' E 103°55'0 0.1
2014-Sep-01 11:33N 01°16' E 103°55'0 0.1
2014-Sep-01 10:33N 01°16' E 103°55'0 0.1
2014-Sep-01 09:33N 01°16' E 103°55'0 0.1
2014-Sep-01 08:33N 01°16' E 103°55'0 0.1
2014-Sep-01 07:33N 01°16' E 103°55'0 0.1
2014-Sep-01 06:33N 01°16' E 103°55'1 1.4
2014-Sep-01 05:33N 01°15' E 103°54'4 4.1
2014-Sep-01 04:33N 01°16' E 103°58'4 3.6
2014-Sep-01 03:33N 01°16' E 104°02'4 3.6
2014-Sep-01 02:27N 01°17' E 104°06'6 3.4
2014-Sep-01 00:33N 01°17' E 104°12'  
2014-Aug-24 02:32N 01°14' E 104°03'8 8.6
2014-Aug-24 01:33N 01°13' E 103°54'7 6.9
2014-Aug-24 00:33N 01°10' E 103°48'  
Track history (hours):
 
Tides and Currents Weather Stations Pressure Air Temp Water Temp Dewpoint Dewpoint Depression Visibility Wind Speed Wind Dir Waves Ship Positions

Maran Canopus

Last reported at 2014-Sep-02 06:31 UTC. Time now 2014-Sep-17 15:41 UTC.
Position N 01°10' E 103°47'.
Warning: this ship's position is 15 days out of date.

Length 333 m; draft 11.5 m.

Type: Tanker. MMSI: 240677000.

Date/timePositionNaut miles runAvg speedWind from/ knotsBaromVisibWave heightAir tempDewpointWater temp
2014-Sep-02 06:31N 01°10' E 103°47'1010.7
2014-Sep-02 05:33N 01°14' E 103°56'2 1.6
2014-Sep-02 04:33N 01°16' E 103°55'0 0.0
2014-Sep-02 03:33N 01°16' E 103°55'0 0.0
2014-Sep-02 02:24N 01°16' E 103°55'0 0.0
2014-Sep-02 01:24N 01°16' E 103°55'0 0.0
2014-Sep-02 00:33N 01°16' E 103°55'0 0.0
2014-Sep-01 23:24N 01°16' E 103°55'0 0.0
2014-Sep-01 22:33N 01°16' E 103°55'0 0.0
2014-Sep-01 21:33N 01°16' E 103°55'0 0.0
2014-Sep-01 20:30N 01°16' E 103°55'0 0.0
2014-Sep-01 19:33N 01°16' E 103°55'0 0.0
2014-Sep-01 18:33N 01°16' E 103°55'0 0.0
2014-Sep-01 17:33N 01°16' E 103°55'0 0.0
2014-Sep-01 16:33N 01°16' E 103°55'0 0.1
2014-Sep-01 15:33N 01°16' E 103°55'0 0.0
2014-Sep-01 14:33N 01°16' E 103°55'0 0.1
2014-Sep-01 13:21N 01°16' E 103°55'0 0.1
2014-Sep-01 12:33N 01°16' E 103°55'0 0.1
2014-Sep-01 11:33N 01°16' E 103°55'0 0.1
2014-Sep-01 10:33N 01°16' E 103°55'0 0.1
2014-Sep-01 09:33N 01°16' E 103°55'0 0.1
2014-Sep-01 08:33N 01°16' E 103°55'0 0.1
2014-Sep-01 07:33N 01°16' E 103°55'0 0.1
2014-Sep-01 06:33N 01°16' E 103°55'1 1.4
2014-Sep-01 05:33N 01°15' E 103°54'4 4.1
2014-Sep-01 04:33N 01°16' E 103°58'4 3.6
2014-Sep-01 03:33N 01°16' E 104°02'4 3.6
2014-Sep-01 02:27N 01°17' E 104°06'6 3.4
2014-Sep-01 00:33N 01°17' E 104°12'  
2014-Aug-24 02:32N 01°14' E 104°03'8 8.6
2014-Aug-24 01:33N 01°13' E 103°54'7 6.9
2014-Aug-24 00:33N 01°10' E 103°48'  

Dump ship's entire track history